METAR Data
IDs: Format: Raw Decoded Include TAF

Data at: 0826 UTC 07 Apr 2020

PHNL 070753Z 28004KT 10SM FEW020 SCT036 SCT048 23/21 A2997 RMK AO2 SLP148 T02330206
PHNL 070653Z 29004KT 10SM FEW023 FEW035 23/21 A2995 RMK AO2 SLP142 T02330206

PHNL 070539Z 0706/0812 24006KT P6SM VCSH SCT025 SCT040 BKN070
  FM071000 05004KT P6SM FEW025 SCT040 SCT070
  FM072000 22010KT P6SM FEW025 SCT040 BKN070


PHOG 070754Z 00000KT 4SM BR BKN009 21/21 A2999 RMK AO2 RAE37 SLP160 P0027 T02110206
PHOG 070654Z 09003KT 4SM +RA BR BKN009 21/21 A2997 RMK AO2 SLP154 P0028 T02110206

PHOG 070706Z 0707/0806 VRB03KT P6SM VCSH FEW009 BKN025 BKN050
  TEMPO 0707/0710 4SM SHRA BKN009 OVC025
  FM072000 33009KT P6SM VCSH SCT025 BKN050 AMD LTD TO VIS AND WIND 0709/0716


PHKO 070753Z 20008KT 10SM CLR 25/21 A2998 RMK AO2 SLP151 T02500206
PHKO 070653Z 21009KT 10SM SCT033 BKN050 26/21 A2996 RMK AO2 SLP145 T02560206

PHKO 070539Z 0706/0806 20009KT P6SM VCSH SCT030 BKN050
  FM071000 09006KT P6SM FEW030 SCT050
  FM072000 28012KT P6SM FEW035 BKN060
  FM080400 22009KT P6SM SCT020 SCT035 BKN060


PHTO 070753Z 20006KT 10SM CLR 22/19 A2999 RMK AO2 SLP154 T02170189
PHTO 070653Z 14003KT 10SM CLR 22/19 A2998 RMK AO2 SLP150 T02220189

PHTO 070539Z 0706/0806 VRB05KT P6SM FEW035
  FM072000 12011KT P6SM VCSH SCT020 BKN035


PHLI 070753Z 25009KT 10SM FEW047 BKN060 OVC090 23/19 A2997 RMK AO2 SLP146 LAST T02280189
PHLI 070653Z 29005KT 10SM CLR 23/19 A2995 RMK AO2 SLP138 T02330189

PHLI 070539Z 0706/0806 VRB06KT P6SM SCT035
  FM071800 24006KT P6SM FEW025 BKN045
  FM072200 17012KT P6SM VCSH SCT025 BKN045
  FM080400 28012KT P6SM VCSH FEW025 BKN045